»·PEaware :: SKY525 KDLS-KMMV

SKY525 :: KDLS-KMMV

FLIGHT INFORMATION

Flight Status: Arrived
Operator:
Skymark Airlines
More flights by this operator :: More flights under this callsign
Pilot: Kim B. (19519)
Aircraft: DORNIER 228
(D228)
More flights by this aircraft type
Origin: KDLS Columbia Gorge Regl/The Dalle
United States
Destination: KMMV McMinnville Mun
United States
More flights between these airports :: More routes between these airports
Route: +DALLS1 LTJ V112 BTG V287 UBG
File this flight plan on PilotEdge
Remarks: SKY-5
Altitude:
(Current/Filed)
8,000ft
Speed:
(Current/Filed)
190kts
Departed: 04-Nov-18 03:30 PM
Arrived: 04-Nov-18 04:20 PM
Distance/Time
Traveled:
87nm/0:50
Distance/Time
To Go:
Arrived

Flight Plot

Page will automatically refresh every two minutes.

Flight plan parsing failed; only flown route is shown


Map Options




Map Legend


Flown Route
Filed Route
Departure Airport
Arrival Airport
Navaid (VOR, NDB)
Fix

Horizontal Profiles

Position Reports

Time Latitude Longitude Heading Altitude Ground
Speed
04-Nov-18 15:21 45.618945 -121.172298 113 220ft 0kts
04-Nov-18 15:22 45.618945 -121.172298 113 220ft 0kts
04-Nov-18 15:23 45.618945 -121.172298 113 220ft 0kts
04-Nov-18 15:24 45.618945 -121.172298 113 220ft 0kts
04-Nov-18 15:25 45.618945 -121.172298 113 220ft 0kts
04-Nov-18 15:26 45.618945 -121.172298 113 220ft 0kts
04-Nov-18 15:27 45.617272 -121.169839 145 227ft 18kts
04-Nov-18 15:28 45.616397 -121.168012 101 232ft 0kts
04-Nov-18 15:29 45.616397 -121.168012 101 232ft 0kts
04-Nov-18 15:30 45.612507 -121.163709 147 241ft 19kts
04-Nov-18 15:31 45.612218 -121.163287 107 241ft 0kts
04-Nov-18 15:32 45.612566 -121.162296 331 241ft 21kts
04-Nov-18 15:33 45.629151 -121.181744 281 1113ft 94kts
04-Nov-18 15:34 45.602142 -121.177348 138 2692ft 158kts
04-Nov-18 15:35 45.575624 -121.137637 140 4038ft 157kts
04-Nov-18 15:36 45.549842 -121.089553 82 5347ft 160kts
04-Nov-18 15:37 45.574530 -121.075531 329 6582ft 107kts
04-Nov-18 15:38 45.600982 -121.083751 340 7578ft 115kts
04-Nov-18 15:39 45.636209 -121.089650 345 8006ft 168kts
04-Nov-18 15:40 45.684754 -121.096667 346 7991ft 191kts
04-Nov-18 15:41 45.713908 -121.142015 279 7991ft 181kts
04-Nov-18 15:42 45.716757 -121.210974 276 7984ft 181kts
04-Nov-18 15:43 45.718729 -121.279324 275 7987ft 180kts
04-Nov-18 15:44 45.720682 -121.351000 275 7989ft 180kts
04-Nov-18 15:45 45.722624 -121.422580 276 7990ft 180kts
04-Nov-18 15:46 45.724322 -121.485881 276 7985ft 180kts
04-Nov-18 15:47 45.725926 -121.548773 276 7983ft 181kts
04-Nov-18 15:48 45.727595 -121.614036 275 7989ft 180kts
04-Nov-18 15:49 45.729090 -121.674378 275 7991ft 180kts
04-Nov-18 15:50 45.730707 -121.740853 276 8015ft 182kts
04-Nov-18 15:51 45.732394 -121.811919 276 8047ft 186kts
04-Nov-18 15:52 45.734051 -121.883933 276 8078ft 192kts
04-Nov-18 15:53 45.735550 -121.950591 276 7982ft 200kts
04-Nov-18 15:54 45.737084 -122.021888 276 7980ft 202kts
04-Nov-18 15:55 45.738657 -122.096902 276 7980ft 202kts
04-Nov-18 15:56 45.740098 -122.167899 276 7980ft 202kts
04-Nov-18 15:57 45.741512 -122.239604 276 7979ft 202kts
04-Nov-18 15:58 45.742889 -122.311935 276 7979ft 202kts
04-Nov-18 15:59 45.744034 -122.373924 276 7979ft 202kts
04-Nov-18 16:00 45.744879 -122.420487 276 7980ft 202kts
04-Nov-18 16:01 45.745523 -122.456615 276 7981ft 201kts
04-Nov-18 16:02 45.746843 -122.533694 276 7981ft 200kts
04-Nov-18 16:03 45.731459 -122.606054 223 7989ft 219kts
04-Nov-18 16:04 45.681766 -122.656572 220 7982ft 221kts
04-Nov-18 16:05 45.631072 -122.706594 220 7984ft 222kts
04-Nov-18 16:06 45.581945 -122.754852 220 7984ft 222kts
04-Nov-18 16:07 45.529821 -122.805935 220 7983ft 222kts
04-Nov-18 16:08 45.481238 -122.853438 220 7982ft 222kts
04-Nov-18 16:09 45.430195 -122.903239 220 7965ft 222kts
04-Nov-18 16:10 45.379197 -122.952897 220 7966ft 222kts
04-Nov-18 16:11 45.325636 -122.935114 131 7384ft 232kts
04-Nov-18 16:12 45.305942 -122.862816 49 6074ft 204kts
04-Nov-18 16:13 45.339568 -122.801463 48 4787ft 195kts
04-Nov-18 16:14 45.378877 -122.776609 307 3759ft 171kts
04-Nov-18 16:15 45.361340 -122.828598 224 3623ft 167kts
04-Nov-18 16:16 45.324334 -122.875396 222 2860ft 171kts
04-Nov-18 16:17 45.294910 -122.922519 240 2799ft 159kts
04-Nov-18 16:18 45.270088 -122.977281 235 2430ft 162kts
04-Nov-18 16:19 45.247561 -123.025635 237 1866ft 140kts
04-Nov-18 16:20 45.227804 -123.069063 237 1221ft 122kts
04-Nov-18 16:20 45.214592 -123.098057 238 731ft 97kts
04-Nov-18 16:22 45.198590 -123.133081 239 162ft 88kts
04-Nov-18 16:22 45.197369 -123.137839 327 153ft 0kts
04-Nov-18 16:24 45.198386 -123.138759 28 151ft 15kts
04-Nov-18 16:24 45.198757 -123.139099 235 150ft 0kts
04-Nov-18 16:25 45.198757 -123.139099 235 150ft 0kts
04-Nov-18 16:26 45.198757 -123.139099 235 150ft 0kts
04-Nov-18 16:27 45.198757 -123.139099 235 150ft 0kts
04-Nov-18 16:28 45.198757 -123.139099 235 150ft 0kts
04-Nov-18 16:29 45.198757 -123.139099 235 150ft 0kts
04-Nov-18 16:30 45.198757 -123.139099 235 150ft 0kts
04-Nov-18 16:31 45.198757 -123.139099 235 150ft 0kts

Navigation Log

Ident Type
Flight plan parsing failed, navigation log unavailable